createdAt,value
2022-08-26T05:04:33.953Z,100667.55
2022-08-26T05:07:03.376Z,100664.50
2022-08-26T05:09:32.167Z,100663.25
2022-08-26T05:12:00.966Z,100664.67
2022-08-26T05:14:29.885Z,100663.89
2022-08-26T05:16:59.161Z,100669.54
2022-08-26T05:19:28.055Z,100669.42
2022-08-26T05:21:56.941Z,100669.18
2022-08-26T05:24:25.849Z,100669.08
2022-08-26T05:26:56.447Z,100670.20
2022-08-26T05:29:25.450Z,100674.85
2022-08-26T05:31:55.956Z,100674.13
2022-08-26T05:34:25.731Z,100674.26
2022-08-26T05:36:59.792Z,100668.02
2022-08-26T05:39:28.815Z,100665.06
2022-08-26T05:41:57.494Z,100661.70
2022-08-26T05:44:26.279Z,100657.04
2022-08-26T05:46:54.967Z,100659.37
2022-08-26T05:49:26.410Z,100659.50
2022-08-26T05:51:55.737Z,100657.90
2022-08-26T05:54:24.615Z,100663.30
2022-08-26T05:56:53.513Z,100654.27
2022-08-26T05:59:24.654Z,100659.83
2022-08-26T06:01:57.483Z,100657.66
2022-08-26T06:04:29.148Z,100654.87
2022-08-26T06:06:59.627Z,100659.08
2022-08-26T06:09:28.442Z,100654.86
2022-08-26T06:11:59.369Z,100656.08
2022-08-26T06:14:28.129Z,100657.25
2022-08-26T06:16:58.047Z,100657.51
2022-08-26T06:19:32.651Z,100657.27
2022-08-26T06:22:23.275Z,100655.45
2022-08-26T06:25:11.118Z,100651.72
2022-08-26T06:27:39.767Z,100655.77
2022-08-26T06:30:10.119Z,100648.95
2022-08-26T06:32:39.123Z,100655.46
2022-08-26T06:35:12.239Z,100655.64
2022-08-26T06:37:41.508Z,100660.71
2022-08-26T06:40:11.444Z,100662.94
2022-08-26T06:42:40.426Z,100662.96
2022-08-26T06:45:09.587Z,100660.41
2022-08-26T06:47:39.869Z,100660.70
2022-08-26T06:50:09.075Z,100659.69
2022-08-26T06:52:37.928Z,100658.59
2022-08-26T06:55:07.554Z,100659.80
2022-08-26T06:57:37.690Z,100655.60
2022-08-26T07:00:10.965Z,100649.19
2022-08-26T07:02:39.845Z,100641.17
2022-08-26T07:05:09.402Z,100636.65
2022-08-26T07:07:38.619Z,100633.60
2022-08-26T07:10:08.945Z,100629.27
2022-08-26T07:12:37.527Z,100627.05
2022-08-26T07:15:07.474Z,100625.55
2022-08-26T07:17:37.066Z,100618.39
2022-08-26T07:20:10.180Z,100619.73
2022-08-26T07:22:39.781Z,100616.11
2022-08-26T07:25:11.761Z,100612.87
2022-08-26T07:27:41.162Z,100605.33
2022-08-26T07:30:10.760Z,100604.27
2022-08-26T07:32:43.759Z,100602.20
2022-08-26T07:35:12.376Z,100599.52
2022-08-26T07:37:41.101Z,100597.23
2022-08-26T07:40:10.435Z,100599.15
2022-08-26T07:42:39.992Z,100594.95
2022-08-26T07:45:09.276Z,100592.94
2022-08-26T07:47:38.026Z,100596.36
2022-08-26T07:50:07.180Z,100597.52
2022-08-26T07:52:37.904Z,100595.59
2022-08-26T07:55:10.153Z,100595.13
2022-08-26T07:57:39.973Z,100590.70
2022-08-26T08:00:13.151Z,100592.98
2022-08-26T08:02:47.089Z,100590.11
2022-08-26T08:05:18.920Z,100589.45
2022-08-26T08:07:48.927Z,100583.55
2022-08-26T08:10:26.685Z,100575.24
2022-08-26T08:12:57.764Z,100571.13
2022-08-26T08:15:31.401Z,100573.27
2022-08-26T08:18:01.091Z,100564.38
2022-08-26T08:20:30.787Z,100557.09
2022-08-26T08:23:02.166Z,100559.96
2022-08-26T08:25:32.707Z,100564.20
2022-08-26T08:28:01.442Z,100561.08
2022-08-26T13:02:37.969Z,100356.73
2022-08-26T13:05:07.464Z,100350.45
2022-08-26T13:07:36.754Z,100344.73
2022-08-26T13:10:06.092Z,100334.25
2022-08-26T13:12:37.637Z,100340.77
2022-08-26T13:15:07.942Z,100343.52
2022-08-26T13:17:36.929Z,100346.04
2022-08-26T13:20:06.516Z,100343.66
2022-08-26T13:22:35.251Z,100348.22
2022-08-26T13:25:04.612Z,100352.73
2022-08-26T13:27:33.439Z,100354.48
2022-08-26T13:30:02.429Z,100354.25
2022-08-26T13:32:32.978Z,100355.71
2022-08-26T13:35:05.572Z,100354.24
2022-08-26T13:37:35.624Z,100352.65
2022-08-26T13:40:07.472Z,100356.05
2022-08-26T13:42:36.337Z,100360.88
2022-08-26T13:45:06.357Z,100361.05
2022-08-26T13:47:35.061Z,100357.20
2022-08-26T13:50:05.862Z,100358.64
2022-08-26T13:52:34.698Z,100358.89
2022-08-26T13:55:04.057Z,100362.39
2022-08-26T13:57:32.976Z,100357.10
2022-08-26T14:00:01.585Z,100359.23
2022-08-26T14:02:38.286Z,100361.83
2022-08-26T14:05:08.580Z,100358.52
2022-08-26T14:07:37.401Z,100358.80
2022-08-26T14:10:07.511Z,100354.16
2022-08-26T14:12:36.129Z,100363.44
2022-08-26T14:15:05.358Z,100357.61
2022-08-26T14:17:34.115Z,100360.14
2022-08-26T14:20:04.876Z,100357.52
2022-08-26T14:22:34.340Z,100355.73
2022-08-26T14:25:03.126Z,100357.20
2022-08-26T14:27:31.689Z,100355.40
2022-08-26T14:30:00.392Z,100354.11
2022-08-26T14:32:30.091Z,100349.91
2022-08-26T14:34:58.902Z,100353.84
2022-08-26T14:37:27.984Z,100356.61
2022-08-26T14:39:57.230Z,100356.58
2022-08-26T14:42:31.428Z,100355.30
2022-08-26T14:45:04.406Z,100355.02
2022-08-26T14:47:33.041Z,100353.75
2022-08-26T14:50:01.961Z,100353.09
2022-08-26T14:52:50.631Z,100352.70
2022-08-26T14:55:19.441Z,100352.29
2022-08-26T14:57:48.911Z,100350.44
2022-08-26T15:00:19.136Z,100352.80
2022-08-26T15:02:48.064Z,100351.23
2022-08-26T15:05:17.006Z,100352.13
2022-08-26T15:07:46.177Z,100355.23
2022-08-26T15:10:17.167Z,100358.02
2022-08-26T15:12:47.082Z,100359.02
2022-08-26T15:15:18.716Z,100360.03
2022-08-26T15:17:48.037Z,100358.73
2022-08-26T15:20:18.287Z,100355.14
2022-08-26T15:22:47.657Z,100357.04
2022-08-26T15:25:17.660Z,100357.25
2022-08-26T15:27:46.501Z,100355.08
2022-08-26T15:30:16.977Z,100351.63
2022-08-26T15:32:45.999Z,100351.90
2022-08-26T15:35:15.090Z,100356.80
2022-08-26T15:37:43.897Z,100356.56
2022-08-26T15:40:12.881Z,100360.16
2022-08-26T15:42:41.690Z,100357.57
2022-08-26T15:45:11.356Z,100360.14
2022-08-26T15:48:10.888Z,100361.46
2022-08-26T15:50:54.008Z,100363.30
2022-08-26T15:53:24.520Z,100365.13
2022-08-26T15:55:58.061Z,100367.39
2022-08-26T15:58:29.246Z,100371.86
2022-08-26T16:00:58.172Z,100372.14
2022-08-26T16:03:26.948Z,100372.27
2022-08-26T16:05:55.726Z,100375.48
2022-08-26T16:08:24.861Z,100373.04
2022-08-26T16:10:58.040Z,100374.58
2022-08-26T16:13:26.938Z,100371.05
2022-08-26T16:16:08.757Z,100377.17
2022-08-26T16:18:37.932Z,100375.20
2022-08-26T16:21:13.880Z,100378.52
2022-08-26T16:23:45.331Z,100374.85
2022-08-26T16:26:22.826Z,100380.47
2022-08-26T16:28:53.293Z,100378.95
2022-08-26T16:31:23.006Z,100375.56
2022-08-26T16:33:52.160Z,100378.32
2022-08-26T16:36:20.935Z,100378.85
2022-08-26T16:38:56.577Z,100376.88
2022-08-26T16:41:29.721Z,100380.16
2022-08-26T16:43:59.306Z,100377.95
2022-08-26T16:46:29.395Z,100376.91
2022-08-26T16:48:59.329Z,100376.06
2022-08-26T16:51:28.690Z,100378.70
2022-08-26T16:53:59.167Z,100376.06
2022-08-26T16:56:34.115Z,100374.55
2022-08-26T16:59:06.049Z,100373.63
2022-08-26T17:01:35.105Z,100377.32
2022-08-26T17:04:04.709Z,100382.98
2022-08-26T17:06:34.497Z,100378.46
2022-08-26T17:09:03.581Z,100379.80
2022-08-26T17:11:32.310Z,100382.95
2022-08-26T17:14:01.554Z,100382.59
2022-08-26T17:16:30.573Z,100388.46
2022-08-26T17:19:00.738Z,100387.39
2022-08-26T17:21:29.876Z,100388.88
2022-08-26T17:23:58.649Z,100395.89
2022-08-26T17:26:28.369Z,100397.95
2022-08-26T17:28:57.144Z,100398.86
2022-08-26T17:31:27.158Z,100401.29
2022-08-26T17:33:56.187Z,100405.02
2022-08-26T17:36:27.850Z,100404.82
2022-08-26T17:38:58.997Z,100408.66
2022-08-26T17:41:27.942Z,100408.45
2022-08-26T17:43:56.678Z,100408.79
2022-08-26T17:46:25.587Z,100412.77
2022-08-26T17:48:55.461Z,100414.41
2022-08-26T17:51:24.322Z,100418.02
2022-08-26T17:53:53.483Z,100415.05
2022-08-26T17:56:27.602Z,100416.61
2022-08-26T17:59:02.347Z,100408.37
2022-08-26T18:01:33.199Z,100417.52
2022-08-26T18:04:03.938Z,100415.14
2022-08-26T18:06:33.438Z,100415.52
2022-08-26T18:09:02.258Z,100413.34
2022-08-26T18:11:31.514Z,100416.41
2022-08-26T18:14:00.597Z,100419.71
2022-08-26T18:16:32.010Z,100424.56
2022-08-26T18:19:01.521Z,100421.98
2022-08-26T18:21:30.414Z,100421.43
2022-08-26T18:23:59.722Z,100420.56
2022-08-26T18:26:36.273Z,100420.26
2022-08-26T18:29:07.379Z,100417.11
2022-08-26T18:31:36.202Z,100413.69
2022-08-26T18:34:06.158Z,100419.94
2022-08-26T18:36:37.507Z,100421.73
2022-08-26T18:39:08.895Z,100422.01
2022-08-26T18:41:49.420Z,100422.30
2022-08-26T18:44:21.661Z,100419.83
2022-08-26T18:46:52.134Z,100419.45
2022-08-26T18:49:22.369Z,100420.47
2022-08-26T18:51:52.663Z,100421.14
2022-08-26T18:54:22.108Z,100421.54
2022-08-26T18:56:50.962Z,100421.80
2022-08-26T18:59:19.890Z,100421.27
2022-08-26T19:01:59.709Z,100420.65
2022-08-26T19:04:28.625Z,100416.88
2022-08-26T19:06:57.295Z,100418.27
2022-08-26T19:09:27.305Z,100422.14
2022-08-26T19:14:31.411Z,100425.05
2022-08-26T19:17:00.706Z,100429.77
2022-08-26T19:19:29.892Z,100432.38
2022-08-26T19:21:58.643Z,100433.56
2022-08-26T19:24:28.359Z,100433.14
2022-08-26T19:27:01.552Z,100429.52
2022-08-26T19:29:35.858Z,100435.27
2022-08-26T19:32:05.149Z,100439.77
2022-08-26T19:34:34.579Z,100436.64
2022-08-26T19:37:03.307Z,100433.34
2022-08-26T19:39:31.892Z,100432.38
2022-08-26T19:42:00.662Z,100428.81
2022-08-26T19:44:48.042Z,100429.70
2022-08-26T19:47:16.921Z,100428.52
2022-08-26T19:49:46.122Z,100428.06
2022-08-26T19:52:14.833Z,100427.71
2022-08-26T19:54:44.640Z,100429.95
2022-08-26T19:57:13.476Z,100427.89
2022-08-26T19:59:42.665Z,100429.94
2022-08-26T20:02:11.626Z,100428.08
2022-08-26T20:04:41.847Z,100430.93
2022-08-26T20:07:13.035Z,100432.94
2022-08-26T20:09:46.463Z,100430.40
2022-08-26T20:12:16.120Z,100432.40
2022-08-26T20:14:45.714Z,100436.70
2022-08-26T20:17:16.240Z,100437.67
2022-08-26T20:20:03.233Z,100438.09
2022-08-26T20:22:33.121Z,100436.66
2022-08-26T20:25:02.398Z,100438.13
2022-08-26T20:27:37.789Z,100436.31
2022-08-26T20:30:10.403Z,100441.13
2022-08-26T20:32:40.233Z,100438.82
2022-08-26T20:35:13.232Z,100438.16
2022-08-26T20:37:42.492Z,100431.24
2022-08-26T20:40:14.087Z,100436.06
2022-08-26T20:42:43.017Z,100433.58
2022-08-26T20:45:12.149Z,100432.95
2022-08-26T20:47:43.944Z,100438.70
2022-08-26T20:50:12.693Z,100441.81
2022-08-26T20:52:41.391Z,100444.88
2022-08-26T20:55:10.588Z,100447.58
2022-08-26T20:57:39.404Z,100446.80
2022-08-26T21:00:09.888Z,100447.13
2022-08-26T21:02:38.640Z,100448.93
2022-08-26T21:05:08.704Z,100448.83
2022-08-26T21:07:37.539Z,100451.17
2022-08-26T21:10:07.294Z,100455.06
2022-08-26T21:12:36.173Z,100456.61
2022-08-26T21:15:06.894Z,100459.12
2022-08-26T21:17:35.562Z,100463.69
2022-08-26T21:20:04.945Z,100460.87
2022-08-26T21:22:34.747Z,100459.88
2022-08-26T21:25:04.248Z,100466.10
2022-08-26T21:27:35.245Z,100465.88
2022-08-26T21:30:05.030Z,100463.05
2022-08-26T21:32:33.747Z,100461.29
2022-08-26T21:35:02.610Z,100461.41
2022-08-26T21:37:31.638Z,100459.06
2022-08-26T21:40:05.603Z,100460.27
2022-08-26T21:42:35.932Z,100462.02
2022-08-26T21:45:06.612Z,100465.06
2022-08-26T21:47:35.365Z,100465.40
2022-08-26T21:50:05.963Z,100466.50
2022-08-26T21:52:35.093Z,100467.05
2022-08-26T21:55:09.050Z,100465.05
2022-08-26T21:57:38.420Z,100460.16
2022-08-26T22:00:10.333Z,100463.80
2022-08-26T22:02:39.449Z,100461.48
2022-08-26T22:05:08.917Z,100458.05
2022-08-26T22:07:37.878Z,100456.73
2022-08-26T22:10:08.363Z,100455.70
2022-08-26T22:12:37.406Z,100458.61
2022-08-26T22:15:07.499Z,100456.69
2022-08-26T22:17:36.416Z,100459.55
2022-08-26T22:20:07.753Z,100459.52
2022-08-26T22:22:46.187Z,100457.58
2022-08-26T22:25:14.866Z,100460.03
2022-08-26T22:27:43.741Z,100465.63
2022-08-26T22:30:13.667Z,100459.50
2022-08-26T22:32:45.056Z,100467.34
2022-08-26T22:35:16.693Z,100460.31
2022-08-26T22:37:59.526Z,100455.99
2022-08-26T22:40:28.747Z,100457.70
2022-08-26T22:42:59.978Z,100455.99
2022-08-26T22:45:33.253Z,100453.23
2022-08-26T22:48:05.092Z,100452.67
2022-08-26T22:50:34.000Z,100455.40
2022-08-26T22:53:03.172Z,100453.42
2022-08-26T22:55:32.082Z,100452.65
2022-08-26T22:58:01.073Z,100451.63
2022-08-26T23:00:32.299Z,100452.36
2022-08-26T23:03:02.832Z,100454.45
2022-08-26T23:05:32.741Z,100455.48
2022-08-26T23:08:02.655Z,100454.49
2022-08-26T23:10:33.271Z,100455.15
2022-08-26T23:13:04.161Z,100453.95
2022-08-26T23:15:33.147Z,100456.17
2022-08-26T23:18:02.887Z,100458.27
2022-08-26T23:20:32.857Z,100462.02
2022-08-26T23:23:02.267Z,100462.49
2022-08-26T23:25:32.810Z,100461.48
2022-08-26T23:28:02.693Z,100458.56
2022-08-26T23:30:34.620Z,100462.86
2022-08-26T23:33:03.580Z,100461.89
2022-08-26T23:35:32.575Z,100466.86
2022-08-26T23:38:02.163Z,100463.79
2022-08-26T23:40:37.164Z,100467.16
2022-08-26T23:43:09.786Z,100467.23
2022-08-26T23:45:39.577Z,100463.16
2022-08-26T23:48:08.879Z,100460.90
2022-08-26T23:50:56.335Z,100447.91
2022-08-26T23:53:25.229Z,100456.58
2022-08-26T23:55:54.532Z,100452.52
2022-08-26T23:58:23.626Z,100452.25
